Time;durP1;ratioP1;P1;durP2;ratioP2;P2;SDS_P1;SDS_P2;PMS_P1;PMS_P2;Temp;Humidity;BMP_temperature;BMP_pressure;BME280_temperature;BME280_humidity;BME280_pressure;Samples;Min_cycle;Max_cycle;Signal;HPM_P1;HPM_P2
2022/07/26 00:01:11;;;;;;;47.10;33.30;;;24.90;99.90;;;;;;5091643;28;20027;-63
2022/07/26 00:03:37;;;;;;;46.55;35.20;;;24.90;99.90;;;;;;5094225;28;20053;-63
2022/07/26 00:06:04;;;;;;;52.05;39.72;;;24.90;99.90;;;;;;5094371;28;20419;-66
2022/07/26 00:08:31;;;;;;;55.42;38.70;;;24.90;99.90;;;;;;5094210;28;20028;-65
2022/07/26 00:10:57;;;;;;;50.53;37.65;;;25.00;99.90;;;;;;5094343;28;20035;-65
2022/07/26 00:13:24;;;;;;;55.03;35.42;;;25.00;99.90;;;;;;5093665;28;20466;-65
2022/07/26 00:15:51;;;;;;;50.80;36.85;;;25.00;99.90;;;;;;5093364;28;20500;-65
2022/07/26 00:18:18;;;;;;;52.83;36.72;;;25.00;99.90;;;;;;5090203;28;20031;-65
2022/07/26 00:20:47;;;;;;;51.28;36.90;;;24.90;99.90;;;;;;5094082;28;20016;-65
2022/07/26 00:23:14;;;;;;;50.67;36.50;;;24.90;99.90;;;;;;5094302;28;20384;-65
2022/07/26 00:25:41;;;;;;;48.45;36.50;;;24.80;99.90;;;;;;5094854;28;20524;-65
2022/07/26 00:28:08;;;;;;;48.50;35.45;;;24.80;99.90;;;;;;5094760;28;20024;-65
2022/07/26 00:30:34;;;;;;;56.13;36.42;;;24.90;99.90;;;;;;5094771;28;20023;-65
2022/07/26 00:33:01;;;;;;;45.22;34.45;;;24.90;99.90;;;;;;5094471;28;20024;-65
2022/07/26 00:35:27;;;;;;;50.47;31.75;;;24.90;99.90;;;;;;5094590;28;20032;-65
2022/07/26 00:37:54;;;;;;;37.80;27.23;;;24.90;99.90;;;;;;5094477;28;20028;-65
2022/07/26 00:40:21;;;;;;;32.22;24.63;;;25.00;99.90;;;;;;5093489;28;20380;-65
2022/07/26 00:42:47;;;;;;;30.30;22.23;;;25.00;99.90;;;;;;5076897;28;20044;-65
2022/07/26 00:45:15;;;;;;;30.33;23.10;;;25.00;99.90;;;;;;5074149;28;20048;-65
2022/07/26 00:47:41;;;;;;;37.08;26.30;;;25.00;99.90;;;;;;5073925;28;20025;-65
2022/07/26 00:50:11;;;;;;;31.30;24.40;;;25.00;99.90;;;;;;5078459;28;20030;-65
2022/07/26 00:52:40;;;;;;;29.45;22.60;;;25.00;99.90;;;;;;5094291;28;20028;-65
2022/07/26 00:55:07;;;;;;;25.05;19.58;;;25.10;99.90;;;;;;5094195;28;20039;-65
2022/07/26 00:57:34;;;;;;;24.70;18.05;;;25.20;99.90;;;;;;5094437;28;20036;-65
2022/07/26 01:00:04;;;;;;;15.35;11.60;;;25.30;99.90;;;;;;5087454;28;20073;-64
2022/07/26 01:02:31;;;;;;;21.35;12.38;;;25.30;99.90;;;;;;5094078;28;20028;-65
2022/07/26 01:04:57;;;;;;;19.10;15.07;;;25.50;99.90;;;;;;5094082;28;20374;-65
2022/07/26 01:07:24;;;;;;;18.08;13.88;;;25.60;99.90;;;;;;5094332;28;20172;-66
2022/07/26 01:09:51;;;;;;;19.17;15.18;;;25.70;99.90;;;;;;5094223;28;20390;-65
2022/07/26 01:12:17;;;;;;;23.58;17.33;;;25.70;99.90;;;;;;5094111;28;20100;-65
2022/07/26 01:14:46;;;;;;;23.77;17.98;;;25.70;99.90;;;;;;5093941;28;20032;-65
2022/07/26 01:17:13;;;;;;;28.80;20.48;;;25.80;99.90;;;;;;5092892;28;20047;-65
2022/07/26 01:19:41;;;;;;;32.30;23.00;;;25.80;99.90;;;;;;5093868;28;20035;-65
2022/07/26 01:22:08;;;;;;;27.95;21.25;;;25.90;99.90;;;;;;5094089;28;20061;-65
2022/07/26 01:24:34;;;;;;;29.52;23.23;;;25.90;99.90;;;;;;5093648;28;20047;-65
2022/07/26 01:27:01;;;;;;;32.83;24.55;;;26.00;99.90;;;;;;5093252;28;20059;-64
2022/07/26 01:29:27;;;;;;;30.38;22.73;;;26.00;99.90;;;;;;5079395;28;20111;-65
2022/07/26 01:31:54;;;;;;;32.58;28.45;;;25.90;99.90;;;;;;5073455;28;20024;-65
2022/07/26 01:34:20;;;;;;;42.83;32.90;;;26.00;99.90;;;;;;5073530;28;20013;-66
2022/07/26 01:36:47;;;;;;;36.63;30.23;;;26.00;99.90;;;;;;5073376;28;20028;-66
2022/07/26 01:39:14;;;;;;;27.35;22.00;;;26.10;99.90;;;;;;5073095;28;20035;-65
2022/07/26 01:41:40;;;;;;;22.67;16.85;;;26.10;99.90;;;;;;5073178;28;20485;-65
2022/07/26 01:44:07;;;;;;;22.92;15.18;;;26.10;99.90;;;;;;5072991;28;20078;-65
2022/07/26 01:46:34;;;;;;;18.42;14.20;;;26.20;99.90;;;;;;5073250;28;20424;-65
2022/07/26 01:49:01;;;;;;;20.05;14.85;;;26.20;99.90;;;;;;5073321;28;20473;-65
2022/07/26 01:51:27;;;;;;;22.90;16.50;;;26.30;99.90;;;;;;5073487;28;20560;-65
2022/07/26 01:53:54;;;;;;;38.83;20.45;;;26.30;99.90;;;;;;5073031;28;20028;-64
2022/07/26 01:56:21;;;;;;;30.27;21.77;;;26.20;99.90;;;;;;5073237;28;20028;-65
2022/07/26 01:58:47;;;;;;;27.25;16.92;;;26.30;99.90;;;;;;5073112;28;20028;-64
2022/07/26 02:01:14;;;;;;;21.13;17.65;;;26.30;99.90;;;;;;5073094;28;20027;-65
2022/07/26 02:03:41;;;;;;;27.05;18.58;;;26.30;99.90;;;;;;5073351;28;20035;-65
2022/07/26 02:06:07;;;;;;;19.63;15.23;;;26.30;99.90;;;;;;5073085;28;20049;-65
2022/07/26 02:08:34;;;;;;;21.65;16.10;;;26.40;99.90;;;;;;5073065;28;20020;-65
2022/07/26 02:11:01;;;;;;;17.20;14.20;;;26.50;99.90;;;;;;5073023;28;20032;-65
2022/07/26 02:13:34;;;;;;;16.17;10.07;;;26.50;99.90;;;;;;5072980;28;20036;-65
2022/07/26 02:16:03;;;;;;;14.82;9.50;;;26.50;99.90;;;;;;5073231;28;20060;-65
2022/07/26 02:18:30;;;;;;;18.25;11.20;;;26.50;99.90;;;;;;5072856;28;20466;-65
2022/07/26 02:20:59;;;;;;;18.92;10.05;;;26.50;99.90;;;;;;5072951;28;20033;-66
2022/07/26 02:23:28;;;;;;;16.15;10.23;;;26.50;99.90;;;;;;5072797;28;20017;-65
2022/07/26 02:25:54;;;;;;;14.07;8.23;;;26.50;99.90;;;;;;5072867;28;20025;-69
2022/07/26 02:28:22;;;;;;;14.85;8.88;;;26.60;99.90;;;;;;5072851;28;20036;-69
2022/07/26 02:30:49;;;;;;;24.95;12.55;;;26.60;99.90;;;;;;5072849;28;20052;-69
2022/07/26 02:33:17;;;;;;;22.80;13.23;;;26.60;99.90;;;;;;5072913;28;20074;-70
2022/07/26 02:35:44;;;;;;;14.50;10.45;;;26.70;99.90;;;;;;5072816;28;20093;-70
2022/07/26 02:38:13;;;;;;;12.05;8.82;;;26.80;99.90;;;;;;5072543;28;20028;-70
2022/07/26 02:40:40;;;;;;;12.35;8.73;;;26.80;99.90;;;;;;5071407;28;20428;-70
2022/07/26 02:43:08;;;;;;;17.90;9.60;;;26.90;99.90;;;;;;5072541;28;20032;-69
2022/07/26 02:45:35;;;;;;;9.77;8.77;;;26.80;99.90;;;;;;5072514;28;20024;-69
2022/07/26 02:48:02;;;;;;;17.48;9.48;;;26.90;99.90;;;;;;5072640;28;20037;-69
2022/07/26 02:50:29;;;;;;;11.45;8.38;;;26.90;99.90;;;;;;5073195;28;20115;-69
2022/07/26 02:52:56;;;;;;;10.63;8.82;;;26.90;99.90;;;;;;5072491;28;20036;-68
2022/07/26 02:55:25;;;;;;;12.23;10.57;;;26.90;99.90;;;;;;5072729;28;20028;-67
2022/07/26 02:57:51;;;;;;;15.82;10.90;;;26.90;99.90;;;;;;5087174;28;20115;-67
2022/07/26 03:00:21;;;;;;;15.43;10.90;;;26.80;99.90;;;;;;5096558;28;20031;-67
2022/07/26 03:02:49;;;;;;;14.05;10.20;;;26.80;99.90;;;;;;5096566;28;20401;-67
2022/07/26 03:05:17;;;;;;;21.15;15.63;;;26.80;99.90;;;;;;5096618;28;20451;-67
2022/07/26 03:07:43;;;;;;;19.23;13.95;;;26.80;99.90;;;;;;5096388;28;20028;-67
2022/07/26 03:10:10;;;;;;;21.98;17.08;;;26.70;99.90;;;;;;5096795;28;20024;-68
2022/07/26 03:12:37;;;;;;;27.30;17.73;;;26.70;99.90;;;;;;5096443;28;20028;-68
2022/07/26 03:15:04;;;;;;;25.20;19.58;;;26.70;99.90;;;;;;5096063;28;20468;-69
2022/07/26 03:17:31;;;;;;;23.15;19.33;;;26.70;99.90;;;;;;5095969;28;20115;-68
2022/07/26 03:19:57;;;;;;;31.85;20.65;;;26.70;99.90;;;;;;5096028;28;20028;-69
2022/07/26 03:22:24;;;;;;;32.28;21.13;;;26.70;99.90;;;;;;5095852;28;20384;-67
2022/07/26 03:24:50;;;;;;;29.25;22.67;;;26.70;99.90;;;;;;5095984;28;20028;-69
2022/07/26 03:27:17;;;;;;;32.22;21.83;;;26.70;99.90;;;;;;5094384;28;20396;-70
2022/07/26 03:29:43;;;;;;;29.40;19.42;;;26.70;99.90;;;;;;5093803;28;20035;-69
2022/07/26 03:32:10;;;;;;;25.63;18.73;;;26.70;99.90;;;;;;5093642;28;20032;-69
2022/07/26 03:34:37;;;;;;;24.77;18.55;;;26.70;99.90;;;;;;5093784;28;20495;-70
2022/07/26 03:37:03;;;;;;;25.85;17.75;;;26.70;99.90;;;;;;5093599;28;20040;-70
2022/07/26 03:39:30;;;;;;;22.52;16.40;;;26.70;99.90;;;;;;5093833;28;20030;-71
2022/07/26 03:41:56;;;;;;;24.45;16.75;;;26.80;99.90;;;;;;5094218;28;20028;-70
2022/07/26 03:44:23;;;;;;;21.00;13.73;;;26.90;99.90;;;;;;5095476;28;20039;-69
2022/07/26 03:46:49;;;;;;;19.63;13.57;;;26.90;99.90;;;;;;5095705;28;20358;-70
2022/07/26 03:49:16;;;;;;;17.65;13.23;;;26.90;99.90;;;;;;5095497;28;20028;-71
2022/07/26 03:51:42;;;;;;;15.93;11.63;;;27.00;99.90;;;;;;5094969;28;20081;-70
2022/07/26 03:54:09;;;;;;;18.98;12.02;;;27.00;99.90;;;;;;5095077;28;20035;-70
2022/07/26 03:56:36;;;;;;;16.08;12.15;;;27.10;99.90;;;;;;5095038;28;20032;-67
2022/07/26 03:59:06;;;;;;;17.77;12.82;;;27.20;99.90;;;;;;5084500;28;20025;-67
2022/07/26 04:01:33;;;;;;;17.38;11.73;;;27.20;99.90;;;;;;5093152;28;20045;-65
2022/07/26 04:04:01;;;;;;;16.85;12.13;;;27.30;99.90;;;;;;5075043;28;20051;-67
2022/07/26 04:06:27;;;;;;;17.45;13.10;;;27.30;99.90;;;;;;5089106;28;20035;-66
2022/07/26 04:08:54;;;;;;;14.48;9.80;;;27.40;99.90;;;;;;5094595;28;20120;-67
2022/07/26 04:11:21;;;;;;;17.20;12.73;;;27.40;99.90;;;;;;5088411;28;20477;-67
2022/07/26 04:13:48;;;;;;;16.55;11.68;;;27.50;99.90;;;;;;5076716;28;20425;-64
2022/07/26 04:16:14;;;;;;;23.30;12.40;;;27.60;99.90;;;;;;5074715;28;20016;-64
2022/07/26 04:18:41;;;;;;;14.60;10.73;;;27.70;99.90;;;;;;5075244;28;20021;-64
2022/07/26 04:21:07;;;;;;;26.02;14.52;;;27.70;99.90;;;;;;5075424;28;20024;-65
2022/07/26 04:23:34;;;;;;;22.05;13.57;;;27.80;99.90;;;;;;5075835;28;20036;-64
2022/07/26 04:26:00;;;;;;;17.23;13.50;;;27.80;99.90;;;;;;5075648;28;20052;-64
2022/07/26 04:28:27;;;;;;;14.20;12.27;;;27.80;99.90;;;;;;5074079;28;20499;-65
2022/07/26 04:30:56;;;;;;;17.10;12.38;;;27.90;99.90;;;;;;5075652;28;20029;-64
2022/07/26 04:33:23;;;;;;;18.63;11.45;;;27.80;99.90;;;;;;5075363;28;20027;-64
2022/07/26 04:35:50;;;;;;;12.00;10.70;;;27.90;99.90;;;;;;5075488;28;20016;-65
2022/07/26 04:38:17;;;;;;;11.80;10.60;;;27.90;99.90;;;;;;5075351;28;20120;-65
2022/07/26 04:40:43;;;;;;;12.60;11.13;;;27.90;99.90;;;;;;5075151;28;20035;-64
2022/07/26 04:43:10;;;;;;;12.73;9.32;;;27.90;99.90;;;;;;5074992;28;20044;-65
2022/07/26 04:45:37;;;;;;;11.27;10.07;;;27.90;99.90;;;;;;5079588;28;20059;-65
2022/07/26 04:48:04;;;;;;;12.07;10.23;;;27.80;99.90;;;;;;5094249;28;20020;-64
2022/07/26 04:50:30;;;;;;;13.93;10.57;;;27.80;99.90;;;;;;5110801;22;20048;-65
2022/07/26 04:52:57;;;;;;;13.40;10.60;;;27.90;99.90;;;;;;5083638;28;20035;-64
2022/07/26 04:55:24;;;;;;;15.43;12.57;;;27.80;99.90;;;;;;5084448;28;20047;-65
2022/07/26 04:57:51;;;;;;;10.35;9.25;;;27.90;99.90;;;;;;5084265;28;20028;-64
2022/07/26 05:00:22;;;;;;;17.25;9.32;;;27.80;99.90;;;;;;5079009;28;20496;-65
2022/07/26 05:02:53;;;;;;;18.10;9.40;;;27.80;99.90;;;;;;5074100;28;20035;-65
2022/07/26 05:05:21;;;;;;;13.63;10.15;;;27.90;99.90;;;;;;5073849;28;20025;-66
2022/07/26 05:07:50;;;;;;;13.18;10.05;;;27.90;99.90;;;;;;5073783;28;20119;-66
2022/07/26 05:10:17;;;;;;;11.05;9.35;;;28.10;99.90;;;;;;5077326;28;20020;-65
2022/07/26 05:12:47;;;;;;;14.32;10.48;;;28.20;99.90;;;;;;5094060;28;20028;-64
2022/07/26 05:15:14;;;;;;;15.10;10.98;;;28.10;99.90;;;;;;5080668;28;20397;-64
2022/07/26 05:17:42;;;;;;;18.85;11.48;;;28.10;99.90;;;;;;5073772;28;20376;-66
2022/07/26 05:20:10;;;;;;;16.40;10.80;;;28.30;99.90;;;;;;5072927;28;20052;-64
2022/07/26 05:22:37;;;;;;;15.43;12.52;;;28.40;99.90;;;;;;5074072;28;20035;-65
2022/07/26 05:25:05;;;;;;;16.40;11.73;;;28.40;99.90;;;;;;5073800;28;20100;-65
2022/07/26 05:27:31;;;;;;;17.42;12.65;;;28.40;99.90;;;;;;5074153;28;20029;-65
2022/07/26 05:29:58;;;;;;;15.27;11.30;;;28.40;99.90;;;;;;5074672;28;20020;-65
2022/07/26 05:32:24;;;;;;;16.77;11.05;;;28.30;99.90;;;;;;5075037;28;20067;-64
2022/07/26 05:34:51;;;;;;;15.07;9.48;;;28.40;99.90;;;;;;5083700;28;20020;-64
2022/07/26 05:37:17;;;;;;;12.27;8.98;;;28.50;99.90;;;;;;5082374;28;20104;-65
2022/07/26 05:40:05;;;;;;;10.80;9.38;;;28.50;99.90;;;;;;5085007;28;20044;-64
2022/07/26 05:42:32;;;;;;;14.30;9.57;;;28.50;99.90;;;;;;5082753;28;20460;-64
2022/07/26 05:44:59;;;;;;;15.73;12.02;;;28.50;99.90;;;;;;5083756;28;20044;-64
2022/07/26 05:47:25;;;;;;;16.58;10.88;;;28.50;99.90;;;;;;5074587;28;20440;-62
2022/07/26 05:49:52;;;;;;;14.02;10.40;;;28.50;99.90;;;;;;5055438;28;20057;-64
2022/07/26 05:52:19;;;;;;;16.15;11.68;;;28.50;99.90;;;;;;5053053;28;20068;-65
2022/07/26 05:54:45;;;;;;;16.23;12.02;;;28.50;99.90;;;;;;5053161;28;20048;-65
2022/07/26 05:57:12;;;;;;;18.02;11.48;;;28.40;99.90;;;;;;5052088;28;20533;-66
2022/07/26 05:59:39;;;;;;;16.73;11.75;;;28.40;99.90;;;;;;5051035;28;20028;-64
2022/07/26 06:02:07;;;;;;;13.43;11.05;;;28.40;99.90;;;;;;5051205;28;20092;-64
2022/07/26 06:04:34;;;;;;;14.48;11.35;;;28.50;99.90;;;;;;5051102;28;20028;-64
2022/07/26 06:07:00;;;;;;;16.98;11.63;;;28.40;99.90;;;;;;5051013;28;20032;-65
2022/07/26 06:09:27;;;;;;;16.02;11.55;;;28.50;99.90;;;;;;5051014;28;20029;-65
2022/07/26 06:11:53;;;;;;;22.02;12.65;;;28.50;99.90;;;;;;5051139;28;20068;-65
2022/07/26 06:14:21;;;;;;;15.70;11.60;;;28.60;99.90;;;;;;5052888;28;20021;-66
2022/07/26 06:16:48;;;;;;;21.15;13.60;;;28.60;99.90;;;;;;5052956;28;20027;-66
2022/07/26 06:19:15;;;;;;;19.98;12.30;;;28.80;99.90;;;;;;5052629;28;20031;-66
2022/07/26 06:21:41;;;;;;;16.52;11.25;;;28.80;99.90;;;;;;5052876;28;20017;-65
2022/07/26 06:24:08;;;;;;;14.70;10.50;;;28.90;99.90;;;;;;5052920;28;20021;-65
2022/07/26 06:26:34;;;;;;;16.92;9.57;;;29.00;99.90;;;;;;5052666;28;20025;-65
2022/07/26 06:29:01;;;;;;;13.73;7.97;;;29.00;99.90;;;;;;5052807;28;20040;-65
2022/07/26 06:31:28;;;;;;;11.35;8.93;;;29.00;99.90;;;;;;5055030;28;20024;-65
2022/07/26 06:33:54;;;;;;;12.30;8.57;;;28.90;99.90;;;;;;5056446;28;20033;-65
2022/07/26 06:36:21;;;;;;;11.90;8.90;;;29.00;99.90;;;;;;5055304;28;20386;-66
2022/07/26 06:38:47;;;;;;;11.07;7.82;;;29.00;99.90;;;;;;5056466;28;20465;-66
2022/07/26 06:41:14;;;;;;;13.48;8.02;;;29.00;99.90;;;;;;5064557;28;20417;-65
2022/07/26 06:43:41;;;;;;;11.57;8.25;;;28.90;99.90;;;;;;5056591;28;20039;-65
2022/07/26 06:46:07;;;;;;;12.27;7.05;;;28.90;99.90;;;;;;5056766;28;20025;-65
2022/07/26 06:48:34;;;;;;;13.85;8.05;;;28.80;99.90;;;;;;5056225;28;20025;-65
2022/07/26 06:51:02;;;;;;;14.43;8.48;;;28.90;99.90;;;;;;5056132;28;20128;-65
2022/07/26 06:53:28;;;;;;;11.90;8.48;;;28.90;99.90;;;;;;5056164;28;20083;-65
2022/07/26 06:55:55;;;;;;;11.32;9.05;;;28.90;99.90;;;;;;5056116;28;20025;-66
2022/07/26 06:58:21;;;;;;;11.65;7.88;;;29.10;99.90;;;;;;5056188;28;20469;-65
2022/07/26 07:00:48;;;;;;;13.18;7.85;;;29.10;99.90;;;;;;5056120;28;20104;-65
2022/07/26 07:03:14;;;;;;;9.93;6.40;;;29.20;99.90;;;;;;5055974;28;20021;-65
2022/07/26 07:05:41;;;;;;;34.20;18.58;;;29.10;99.90;;;;;;5056131;28;20025;-65
2022/07/26 07:08:07;;;;;;;10.95;6.90;;;29.10;99.90;;;;;;5056064;28;20045;-66
2022/07/26 07:10:34;;;;;;;10.80;6.78;;;29.00;99.90;;;;;;5055950;28;20029;-65
2022/07/26 07:13:01;;;;;;;12.68;6.70;;;29.00;99.90;;;;;;5055999;28;20021;-65
2022/07/26 07:15:27;;;;;;;11.20;7.30;;;28.90;99.90;;;;;;5055963;28;20470;-65
2022/07/26 07:17:54;;;;;;;10.73;6.32;;;28.90;99.90;;;;;;5055775;28;20071;-65
2022/07/26 07:20:20;;;;;;;12.73;5.88;;;28.80;99.90;;;;;;5055629;28;20070;-68
2022/07/26 07:22:47;;;;;;;6.97;6.32;;;28.80;99.90;;;;;;5055756;28;20017;-69
2022/07/26 07:25:14;;;;;;;11.48;6.90;;;28.70;99.90;;;;;;5055526;28;20044;-68
2022/07/26 07:27:40;;;;;;;10.15;6.75;;;28.70;99.90;;;;;;5055390;28;20060;-69
2022/07/26 07:30:09;;;;;;;8.40;6.13;;;28.70;99.90;;;;;;5055410;28;20051;-70
2022/07/26 07:32:36;;;;;;;10.23;6.20;;;28.70;99.90;;;;;;5055554;28;20114;-68
2022/07/26 07:35:03;;;;;;;6.93;5.95;;;28.70;99.90;;;;;;5055254;28;20524;-69
2022/07/26 07:37:32;;;;;;;8.38;6.07;;;28.60;99.90;;;;;;5055261;28;20071;-68
2022/07/26 07:39:59;;;;;;;6.60;5.65;;;28.60;99.90;;;;;;5055420;28;20032;-68
2022/07/26 07:42:26;;;;;;;11.80;6.45;;;28.50;99.90;;;;;;5054502;28;20025;-67
2022/07/26 07:44:52;;;;;;;10.65;6.70;;;28.50;99.90;;;;;;5055353;28;20024;-68
2022/07/26 07:47:20;;;;;;;10.43;7.35;;;28.60;99.90;;;;;;5055194;28;20032;-69
2022/07/26 07:49:47;;;;;;;7.05;6.00;;;28.60;99.90;;;;;;5055106;28;20075;-68
2022/07/26 07:52:14;;;;;;;6.32;5.53;;;28.50;99.90;;;;;;5054971;28;20041;-69
2022/07/26 07:54:40;;;;;;;13.38;6.75;;;28.50;99.90;;;;;;5055074;28;20032;-68
2022/07/26 07:57:07;;;;;;;10.80;6.40;;;28.50;99.90;;;;;;5054724;28;20021;-69
2022/07/26 07:59:33;;;;;;;7.60;5.50;;;28.50;99.90;;;;;;5054841;28;20051;-69
2022/07/26 08:02:00;;;;;;;8.77;6.25;;;28.60;99.90;;;;;;5054944;28;20021;-71
2022/07/26 08:04:26;;;;;;;7.97;5.90;;;28.60;99.90;;;;;;5054853;28;20429;-68
2022/07/26 08:06:53;;;;;;;12.40;6.53;;;28.70;99.90;;;;;;5062619;28;20054;-69
2022/07/26 08:09:20;;;;;;;12.05;6.25;;;28.80;99.90;;;;;;5062981;28;20130;-69
2022/07/26 08:11:46;;;;;;;6.28;4.88;;;28.80;99.90;;;;;;5063668;28;20056;-67
2022/07/26 08:14:13;;;;;;;11.27;6.25;;;28.90;99.90;;;;;;5064916;28;20069;-69
2022/07/26 08:16:39;;;;;;;6.03;5.13;;;29.00;99.90;;;;;;5062817;28;20049;-69
2022/07/26 08:19:06;;;;;;;7.85;5.25;;;29.10;99.90;;;;;;5063753;28;20021;-69
2022/07/26 08:21:32;;;;;;;6.68;5.32;;;29.20;99.90;;;;;;5067492;28;20017;-65
2022/07/26 08:23:59;;;;;;;8.70;6.15;;;29.20;99.90;;;;;;5072394;28;20020;-65
2022/07/26 08:26:25;;;;;;;10.77;5.43;;;29.30;99.90;;;;;;5064310;28;20409;-67
2022/07/26 08:28:52;;;;;;;9.43;5.20;;;29.40;99.90;;;;;;5054403;28;20035;-67
2022/07/26 08:31:19;;;;;;;8.80;5.78;;;29.50;99.90;;;;;;5054510;28;20120;-65
2022/07/26 08:33:47;;;;;;;9.27;6.35;;;29.50;99.90;;;;;;5055276;28;20079;-65
2022/07/26 08:36:17;;;;;;;7.13;5.97;;;29.60;99.90;;;;;;5055570;28;20096;-66
2022/07/26 08:38:44;;;;;;;27.98;19.77;;;29.60;99.90;;;;;;5055150;28;20017;-65
2022/07/26 08:41:10;;;;;;;32.40;20.15;;;29.70;99.90;;;;;;5054880;28;20035;-66
2022/07/26 08:43:37;;;;;;;17.02;9.98;;;29.60;99.90;;;;;;5055138;28;20023;-67
2022/07/26 08:46:04;;;;;;;11.30;7.97;;;29.60;99.90;;;;;;5054952;28;20021;-67
2022/07/26 08:48:31;;;;;;;7.57;6.15;;;29.60;99.90;;;;;;5054366;28;20017;-66
2022/07/26 08:51:00;;;;;;;7.03;5.78;;;29.60;99.90;;;;;;5054264;28;20035;-68
2022/07/26 08:53:29;;;;;;;7.88;4.72;;;29.50;99.90;;;;;;5053598;28;20067;-67
2022/07/26 08:55:57;;;;;;;10.35;5.28;;;29.40;99.90;;;;;;5053319;28;20029;-68
2022/07/26 08:58:23;;;;;;;6.22;4.78;;;29.40;99.90;;;;;;5053952;28;20040;-68
2022/07/26 09:01:03;;;;;;;10.68;7.20;;;29.40;99.90;;;;;;5054214;28;20025;-68
2022/07/26 09:03:30;;;;;;;11.35;6.05;;;29.30;99.90;;;;;;5053859;28;20029;-67
2022/07/26 09:06:09;;;;;;;6.93;5.70;;;29.30;99.90;;;;;;5053868;28;20047;-67
2022/07/26 09:08:36;;;;;;;6.88;5.05;;;29.30;99.90;;;;;;5053775;28;20408;-68
2022/07/26 09:11:22;;;;;;;9.05;5.18;;;29.30;99.90;;;;;;5053838;28;20032;-67
2022/07/26 09:13:52;;;;;;;9.52;6.32;;;29.30;99.90;;;;;;5053327;28;20036;-67
2022/07/26 09:16:19;;;;;;;11.10;5.47;;;29.30;99.90;;;;;;5053481;28;20021;-68
2022/07/26 09:18:46;;;;;;;13.15;5.38;;;29.20;99.90;;;;;;5053652;28;20056;-68
2022/07/26 09:21:32;;;;;;;17.52;6.78;;;29.20;99.90;;;;;;5053914;28;20021;-68
2022/07/26 09:24:00;;;;;;;15.82;7.18;;;29.20;99.90;;;;;;5053381;28;20021;-67
2022/07/26 09:26:27;;;;;;;13.07;6.30;;;29.20;99.90;;;;;;5053276;28;20025;-70
2022/07/26 09:29:06;;;;;;;11.20;6.32;;;29.30;99.90;;;;;;5053373;28;20104;-70
2022/07/26 09:31:32;;;;;;;13.70;6.45;;;29.20;99.90;;;;;;5053620;28;20073;-69
2022/07/26 09:34:00;;;;;;;13.27;5.97;;;29.20;99.90;;;;;;5055300;28;20111;-70
2022/07/26 09:36:27;;;;;;;12.52;6.10;;;29.20;99.90;;;;;;5061710;28;20029;-70
2022/07/26 09:38:57;;;;;;;12.07;5.65;;;29.10;99.90;;;;;;5053486;28;20063;-69
2022/07/26 09:41:31;;;;;;;15.05;6.03;;;29.10;99.90;;;;;;5053565;28;20108;-70
2022/07/26 09:44:03;;;;;;;13.70;7.07;;;29.00;99.90;;;;;;5053104;28;20478;-69
2022/07/26 09:46:31;;;;;;;;;;;29.00;99.90;;;;;;5053296;28;20462;-70
2022/07/26 09:49:18;;;;;;;10.30;6.35;;;29.00;99.90;;;;;;5053142;28;19946;-69
2022/07/26 09:51:47;;;;;;;7.45;6.00;;;28.90;99.90;;;;;;5052712;28;20068;-69
2022/07/26 09:54:29;;;;;;;8.30;6.30;;;28.90;99.90;;;;;;5053138;28;20466;-70
2022/07/26 09:56:56;;;;;;;15.68;7.57;;;28.90;99.90;;;;;;5052717;28;20037;-71
2022/07/26 09:59:25;;;;;;;11.10;7.60;;;29.00;99.90;;;;;;5053081;28;20032;-68
2022/07/26 10:01:54;;;;;;;20.02;8.10;;;29.00;99.90;;;;;;5053066;28;20024;-69
2022/07/26 10:04:21;;;;;;;15.55;7.28;;;28.90;99.90;;;;;;5052917;28;20021;-69
2022/07/26 10:06:48;;;;;;;11.32;8.07;;;28.90;99.90;;;;;;5056032;28;20512;-69
2022/07/26 10:09:17;;;;;;;12.85;7.95;;;28.90;99.90;;;;;;5057050;28;20487;-69
2022/07/26 10:11:52;;;;;;;15.15;7.85;;;28.80;99.90;;;;;;5058760;28;20036;-70
2022/07/26 10:14:40;;;;;;;13.82;7.82;;;28.80;99.90;;;;;;5066041;28;20036;-69
2022/07/26 10:17:30;;;;;;;13.45;8.25;;;28.80;99.90;;;;;;5066884;28;20029;-70
2022/07/26 10:20:03;;;;;;;17.42;9.77;;;28.80;99.90;;;;;;5065982;28;20021;-73
2022/07/26 10:22:40;;;;;;;16.42;10.20;;;28.80;99.90;;;;;;5065608;28;20016;-71
2022/07/26 10:25:17;;;;;;;16.40;10.63;;;28.80;99.90;;;;;;5068326;28;20094;-71
2022/07/26 10:27:49;;;;;;;19.27;11.13;;;28.80;99.90;;;;;;5066610;28;20025;-71
2022/07/26 10:30:21;;;;;;;21.00;13.23;;;28.80;99.90;;;;;;5065388;28;20292;-72
2022/07/26 10:32:50;;;;;;;;;;;28.80;99.90;;;;;;5065928;28;20028;-72
2022/07/26 10:35:41;;;;;;;20.38;11.98;;;28.80;99.90;;;;;;5065328;28;20353;-72
2022/07/26 10:38:08;;;;;;;20.00;13.45;;;28.80;99.90;;;;;;5024731;28;20124;-71
2022/07/26 10:40:37;;;;;;;18.80;15.32;;;28.70;99.90;;;;;;5022363;28;20037;-70
2022/07/26 10:43:14;;;;;;;20.17;15.45;;;28.70;99.90;;;;;;5023079;28;20033;-71
2022/07/26 10:45:42;;;;;;;26.05;15.73;;;28.70;99.90;;;;;;5023414;28;20038;-70
2022/07/26 10:48:18;;;;;;;32.30;19.60;;;28.70;99.90;;;;;;5023388;28;20030;-71
2022/07/26 10:50:49;;;;;;;31.00;19.08;;;28.70;99.90;;;;;;5024197;28;20430;-71
2022/07/26 10:53:24;;;;;;;24.25;16.38;;;28.70;99.90;;;;;;5022745;28;20076;-71
2022/07/26 10:56:00;;;;;;;26.00;16.52;;;28.70;99.90;;;;;;5023088;28;20397;-71
2022/07/26 10:58:26;;;;;;;20.77;13.40;;;28.70;99.90;;;;;;5024474;28;20030;-71
2022/07/26 11:00:58;;;;;;;24.83;15.23;;;28.70;99.90;;;;;;5022946;28;20113;-70
2022/07/26 11:03:24;;;;;;;17.83;11.20;;;28.60;99.90;;;;;;5024019;28;20529;-71
2022/07/26 11:05:51;;;;;;;20.92;12.30;;;28.50;99.90;;;;;;5024321;28;20034;-71
2022/07/26 11:08:18;;;;;;;16.20;12.32;;;28.50;99.90;;;;;;5024675;28;20022;-71
2022/07/26 11:10:46;;;;;;;20.60;14.30;;;28.50;99.90;;;;;;5006993;28;20642;-72
2022/07/26 11:13:19;;;;;;;25.88;15.48;;;28.50;99.90;;;;;;5023651;28;20117;-72
2022/07/26 11:15:45;;;;;;;25.85;16.63;;;28.50;99.90;;;;;;5023939;28;20033;-69
2022/07/26 11:18:15;;;;;;;28.30;17.08;;;28.50;99.90;;;;;;5022249;28;20067;-69
2022/07/26 11:20:44;;;;;;;25.35;15.23;;;28.50;99.90;;;;;;5021902;28;20608;-68
2022/07/26 11:23:22;;;;;;;25.77;15.45;;;28.50;99.90;;;;;;5022507;28;20079;-70
2022/07/26 11:26:17;;;;;;;31.88;20.30;;;28.50;99.90;;;;;;5022662;28;20026;-70
2022/07/26 11:28:46;;;;;;;29.30;18.73;;;28.40;99.90;;;;;;5023479;28;20105;-69
2022/07/26 11:31:14;;;;;;;31.35;19.98;;;28.40;99.90;;;;;;5018825;28;20390;-68
2022/07/26 11:33:43;;;;;;;32.75;22.88;;;28.30;99.90;;;;;;5030054;28;20044;-70
2022/07/26 11:36:13;;;;;;;28.15;19.70;;;28.30;99.90;;;;;;5064454;28;20028;-70
2022/07/26 11:39:01;;;;;;;31.70;20.85;;;28.40;99.90;;;;;;5068968;28;20020;-70
2022/07/26 11:41:30;;;;;;;39.55;25.45;;;28.40;99.90;;;;;;5065607;28;20055;-69
2022/07/26 11:43:58;;;;;;;40.13;24.98;;;28.40;99.90;;;;;;5064940;28;20017;-69
2022/07/26 11:46:36;;;;;;;34.72;23.17;;;28.40;99.90;;;;;;5063148;28;20021;-70
2022/07/26 11:49:05;;;;;;;38.33;21.65;;;28.30;99.90;;;;;;5063273;28;20024;-69
2022/07/26 11:51:31;;;;;;;30.65;21.02;;;28.30;99.90;;;;;;5062925;28;20043;-68
2022/07/26 11:54:02;;;;;;;37.10;23.00;;;28.30;99.90;;;;;;5068106;28;20059;-68
2022/07/26 11:56:30;;;;;;;35.80;21.13;;;28.40;99.90;;;;;;5066175;28;20032;-65
2022/07/26 11:58:57;;;;;;;30.45;22.95;;;28.30;99.90;;;;;;5059120;28;20029;-65
2022/07/26 12:01:26;;;;;;;33.42;20.88;;;28.30;99.90;;;;;;5065576;28;20481;-65
2022/07/26 12:03:54;;;;;;;27.10;17.80;;;28.30;99.90;;;;;;5067737;28;20021;-65
2022/07/26 12:06:24;;;;;;;38.38;22.40;;;28.20;99.90;;;;;;5064995;28;20016;-65
2022/07/26 12:08:55;;;;;;;29.05;20.77;;;28.20;99.90;;;;;;5063919;28;20021;-66
2022/07/26 12:11:24;;;;;;;37.13;20.40;;;28.20;99.90;;;;;;5062935;28;20017;-66
2022/07/26 12:14:01;;;;;;;30.80;20.13;;;28.10;99.90;;;;;;5064012;28;20485;-65
2022/07/26 12:16:45;;;;;;;33.60;20.63;;;28.10;99.90;;;;;;5065714;28;20459;-66
2022/07/26 12:19:23;;;;;;;31.15;20.45;;;28.20;99.90;;;;;;5063433;28;20457;-67
2022/07/26 12:21:53;;;;;;;33.30;19.65;;;28.20;99.90;;;;;;5063138;28;20025;-67
2022/07/26 12:24:39;;;;;;;28.30;18.55;;;28.20;99.90;;;;;;5065039;28;20017;-68
2022/07/26 12:27:07;;;;;;;25.85;16.80;;;28.20;99.90;;;;;;5064603;28;20024;-69
2022/07/26 12:29:37;;;;;;;27.75;17.88;;;28.20;99.90;;;;;;5064072;28;20064;-68
2022/07/26 12:32:07;;;;;;;33.88;18.23;;;28.10;99.90;;;;;;5062577;28;20025;-68
2022/07/26 12:34:35;;;;;;;37.78;19.02;;;28.10;99.90;;;;;;5063368;28;20032;-69
2022/07/26 12:37:10;;;;;;;27.70;19.75;;;28.10;99.90;;;;;;5064259;28;20043;-68
2022/07/26 12:39:37;;;;;;;32.38;20.85;;;28.10;99.90;;;;;;5064455;28;20037;-68